sensor_id;sensor_type;location;lat;lon;timestamp;pressure;altitude;pressure_sealevel;temperature;humidity
41688;BME280;27371;42.686;23.362;2023-02-10T00:01:24;160841.97;;;-5.25;60.61
41688;BME280;27371;42.686;23.362;2023-02-10T00:03:50;160834.03;;;-5.28;60.05
41688;BME280;27371;42.686;23.362;2023-02-10T00:06:16;160832.72;;;-5.28;59.83
41688;BME280;27371;42.686;23.362;2023-02-10T00:08:46;160826.09;;;-5.31;60.34
41688;BME280;27371;42.686;23.362;2023-02-10T00:11:12;160812.88;;;-5.36;60.10
41688;BME280;27371;42.686;23.362;2023-02-10T00:13:38;160808.91;;;-5.38;60.24
41688;BME280;27371;42.686;23.362;2023-02-10T00:16:06;160802.34;;;-5.40;60.12
41688;BME280;27371;42.686;23.362;2023-02-10T00:18:32;160795.72;;;-5.43;60.36
41688;BME280;27371;42.686;23.362;2023-02-10T00:21:09;160798.34;;;-5.42;60.67
41688;BME280;27371;42.686;23.362;2023-02-10T00:23:35;160803.63;;;-5.40;60.61
41688;BME280;27371;42.686;23.362;2023-02-10T00:26:04;160811.56;;;-5.37;60.40
41688;BME280;27371;42.686;23.362;2023-02-10T00:28:30;160812.88;;;-5.36;60.54
41688;BME280;27371;42.686;23.362;2023-02-10T00:30:55;160820.81;;;-5.33;60.33
41688;BME280;27371;42.686;23.362;2023-02-10T00:33:21;160818.19;;;-5.34;60.68
41688;BME280;27371;42.686;23.362;2023-02-10T00:35:46;160806.28;;;-5.39;60.50
41688;BME280;27371;42.686;23.362;2023-02-10T00:38:12;160799.66;;;-5.41;60.34
41688;BME280;27371;42.686;23.362;2023-02-10T00:40:37;160778.50;;;-5.49;60.47
41688;BME280;27371;42.686;23.362;2023-02-10T00:43:03;160773.22;;;-5.51;60.51
41688;BME280;27371;42.686;23.362;2023-02-10T00:45:28;160773.22;;;-5.51;60.75
41688;BME280;27371;42.686;23.362;2023-02-10T00:47:53;160760.03;;;-5.56;60.43
41688;BME280;27371;42.686;23.362;2023-02-10T00:50:19;160766.66;;;-5.54;60.46
41688;BME280;27371;42.686;23.362;2023-02-10T00:52:44;160746.81;;;-5.62;60.91
41688;BME280;27371;42.686;23.362;2023-02-10T00:55:10;160741.50;;;-5.64;61.07
41688;BME280;27371;42.686;23.362;2023-02-10T00:57:35;160746.81;;;-5.62;60.97
41688;BME280;27371;42.686;23.362;2023-02-10T01:00:01;160741.50;;;-5.64;61.12
41688;BME280;27371;42.686;23.362;2023-02-10T01:02:27;160734.91;;;-5.66;61.40
41688;BME280;27371;42.686;23.362;2023-02-10T01:04:53;160762.66;;;-5.55;61.36
41688;BME280;27371;42.686;23.362;2023-02-10T01:07:18;160763.97;;;-5.55;61.62
41688;BME280;27371;42.686;23.362;2023-02-10T01:09:44;160754.72;;;-5.58;61.58
41688;BME280;27371;42.686;23.362;2023-02-10T01:12:09;160748.13;;;-5.61;61.88
41688;BME280;27371;42.686;23.362;2023-02-10T01:14:35;160736.22;;;-5.66;61.77
41688;BME280;27371;42.686;23.362;2023-02-10T01:17:00;160766.66;;;-5.54;61.88
41688;BME280;27371;42.686;23.362;2023-02-10T01:19:26;160771.91;;;-5.52;61.87
41688;BME280;27371;42.686;23.362;2023-02-10T01:21:51;160773.22;;;-5.51;62.13
41688;BME280;27371;42.686;23.362;2023-02-10T01:24:17;160774.56;;;-5.51;61.73
41688;BME280;27371;42.686;23.362;2023-02-10T01:26:42;160769.28;;;-5.53;61.76
41688;BME280;27371;42.686;23.362;2023-02-10T01:29:08;160763.97;;;-5.55;61.66
41688;BME280;27371;42.686;23.362;2023-02-10T01:31:33;160761.34;;;-5.56;61.79
41688;BME280;27371;42.686;23.362;2023-02-10T01:33:59;160745.50;;;-5.62;61.78
41688;BME280;27371;42.686;23.362;2023-02-10T01:36:25;160717.75;;;-5.73;61.71
41688;BME280;27371;42.686;23.362;2023-02-10T01:38:51;160726.97;;;-5.69;61.41
41688;BME280;27371;42.686;23.362;2023-02-10T01:41:19;160721.69;;;-5.71;61.92
41688;BME280;27371;42.686;23.362;2023-02-10T01:46:47;160674.13;;;-5.90;61.86
41688;BME280;27371;42.686;23.362;2023-02-10T01:49:15;160658.31;;;-5.96;62.19
41688;BME280;27371;42.686;23.362;2023-02-10T01:51:55;160637.16;;;-6.04;62.85
41688;BME280;27371;42.686;23.362;2023-02-10T01:54:25;160631.91;;;-6.06;62.86
41688;BME280;27371;42.686;23.362;2023-02-10T01:56:52;160608.09;;;-6.15;62.97
41688;BME280;27371;42.686;23.362;2023-02-10T01:59:19;160585.66;;;-6.24;63.46
41688;BME280;27371;42.686;23.362;2023-02-10T02:01:46;160561.88;;;-6.33;63.46
41688;BME280;27371;42.686;23.362;2023-02-10T02:04:12;160557.91;;;-6.35;63.91
41688;BME280;27371;42.686;23.362;2023-02-10T02:06:38;160550.00;;;-6.38;64.13
41688;BME280;27371;42.686;23.362;2023-02-10T02:09:05;160540.75;;;-6.41;63.85
41688;BME280;27371;42.686;23.362;2023-02-10T02:17:06;160551.28;;;-6.37;63.68
41688;BME280;27371;42.686;23.362;2023-02-10T02:19:53;160559.22;;;-6.34;63.44
41688;BME280;27371;42.686;23.362;2023-02-10T02:23:04;160571.13;;;-6.30;63.14
41688;BME280;27371;42.686;23.362;2023-02-10T02:31:33;160524.91;;;-6.47;64.13
41688;BME280;27371;42.686;23.362;2023-02-10T02:34:03;160519.63;;;-6.50;64.25
41688;BME280;27371;42.686;23.362;2023-02-10T02:36:39;160520.94;;;-6.49;64.40
41688;BME280;27371;42.686;23.362;2023-02-10T02:39:06;160515.63;;;-6.51;64.74
41688;BME280;27371;42.686;23.362;2023-02-10T02:41:34;160497.19;;;-6.58;64.68
41688;BME280;27371;42.686;23.362;2023-02-10T02:44:02;160490.56;;;-6.61;65.44
41688;BME280;27371;42.686;23.362;2023-02-10T02:49:13;160476.06;;;-6.66;65.59
41688;BME280;27371;42.686;23.362;2023-02-10T02:52:00;160502.44;;;-6.56;65.28
41688;BME280;27371;42.686;23.362;2023-02-10T02:59:40;160497.19;;;-6.58;65.62
41688;BME280;27371;42.686;23.362;2023-02-10T03:02:12;160518.31;;;-6.50;65.18
41688;BME280;27371;42.686;23.362;2023-02-10T03:04:38;160515.63;;;-6.51;65.61
41688;BME280;27371;42.686;23.362;2023-02-10T03:07:04;160520.94;;;-6.49;65.32
41688;BME280;27371;42.686;23.362;2023-02-10T03:09:30;160511.72;;;-6.53;65.20
41688;BME280;27371;42.686;23.362;2023-02-10T03:11:56;160476.06;;;-6.66;64.90
41688;BME280;27371;42.686;23.362;2023-02-10T03:14:21;160435.09;;;-6.82;64.99
41688;BME280;27371;42.686;23.362;2023-02-10T03:16:47;160428.50;;;-6.85;65.23
41688;BME280;27371;42.686;23.362;2023-02-10T03:19:13;160407.38;;;-6.93;65.08
41688;BME280;27371;42.686;23.362;2023-02-10T03:21:39;160384.94;;;-7.02;65.31
41688;BME280;27371;42.686;23.362;2023-02-10T03:24:05;160374.34;;;-7.06;65.67
41688;BME280;27371;42.686;23.362;2023-02-10T03:26:30;160380.94;;;-7.03;65.61
41688;BME280;27371;42.686;23.362;2023-02-10T03:28:56;160403.44;;;-6.95;65.48
41688;BME280;27371;42.686;23.362;2023-02-10T03:31:22;160423.22;;;-6.87;65.72
41688;BME280;27371;42.686;23.362;2023-02-10T03:33:48;160456.22;;;-6.74;65.54
41688;BME280;27371;42.686;23.362;2023-02-10T03:36:14;160478.69;;;-6.65;65.67
41688;BME280;27371;42.686;23.362;2023-02-10T03:38:40;160491.88;;;-6.60;65.10
41688;BME280;27371;42.686;23.362;2023-02-10T03:41:05;160503.78;;;-6.56;65.31
41688;BME280;27371;42.686;23.362;2023-02-10T03:43:31;160502.44;;;-6.56;65.15
41688;BME280;27371;42.686;23.362;2023-02-10T03:46:01;160497.19;;;-6.58;64.70
41688;BME280;27371;42.686;23.362;2023-02-10T03:48:27;160503.78;;;-6.56;64.61
41688;BME280;27371;42.686;23.362;2023-02-10T03:50:57;160472.06;;;-6.68;64.83
41688;BME280;27371;42.686;23.362;2023-02-10T03:53:23;160482.66;;;-6.64;64.55
41688;BME280;27371;42.686;23.362;2023-02-10T03:55:48;160497.19;;;-6.58;64.53
41688;BME280;27371;42.686;23.362;2023-02-10T03:58:14;160477.34;;;-6.66;64.25
41688;BME280;27371;42.686;23.362;2023-02-10T04:00:39;160462.84;;;-6.72;64.28
41688;BME280;27371;42.686;23.362;2023-02-10T04:03:05;160449.63;;;-6.77;64.14
41688;BME280;27371;42.686;23.362;2023-02-10T04:05:30;160435.09;;;-6.82;63.96
41688;BME280;27371;42.686;23.362;2023-02-10T04:07:56;160436.41;;;-6.82;64.11
41688;BME280;27371;42.686;23.362;2023-02-10T04:10:21;160435.09;;;-6.82;64.04
41688;BME280;27371;42.686;23.362;2023-02-10T04:12:48;160399.47;;;-6.96;64.08
41688;BME280;27371;42.686;23.362;2023-02-10T04:15:13;160366.44;;;-7.09;64.43
41688;BME280;27371;42.686;23.362;2023-02-10T04:17:39;160318.94;;;-7.27;64.76
41688;BME280;27371;42.686;23.362;2023-02-10T04:20:05;160301.75;;;-7.34;65.10
41688;BME280;27371;42.686;23.362;2023-02-10T04:22:30;160274.03;;;-7.45;65.41
41688;BME280;27371;42.686;23.362;2023-02-10T04:24:56;160239.78;;;-7.58;65.82
41688;BME280;27371;42.686;23.362;2023-02-10T04:27:22;160223.91;;;-7.64;66.09
41688;BME280;27371;42.686;23.362;2023-02-10T04:29:47;160219.97;;;-7.66;66.14
41688;BME280;27371;42.686;23.362;2023-02-10T04:32:13;160213.38;;;-7.68;66.54
41688;BME280;27371;42.686;23.362;2023-02-10T04:34:38;160222.59;;;-7.65;66.37
41688;BME280;27371;42.686;23.362;2023-02-10T04:37:04;160210.69;;;-7.69;66.71
41688;BME280;27371;42.686;23.362;2023-02-10T04:39:29;160217.31;;;-7.67;66.56
41688;BME280;27371;42.686;23.362;2023-02-10T04:41:55;160249.00;;;-7.54;66.83
41688;BME280;27371;42.686;23.362;2023-02-10T04:44:20;160258.22;;;-7.51;66.33
41688;BME280;27371;42.686;23.362;2023-02-10T04:46:46;160278.03;;;-7.43;66.45
41688;BME280;27371;42.686;23.362;2023-02-10T04:49:12;160295.16;;;-7.36;66.46
41688;BME280;27371;42.686;23.362;2023-02-10T04:51:38;160296.47;;;-7.36;66.30
41688;BME280;27371;42.686;23.362;2023-02-10T04:54:03;160278.03;;;-7.43;66.62
41688;BME280;27371;42.686;23.362;2023-02-10T04:56:29;160251.63;;;-7.53;66.42
41688;BME280;27371;42.686;23.362;2023-02-10T04:58:54;160249.00;;;-7.54;66.72
41688;BME280;27371;42.686;23.362;2023-02-10T05:01:20;160230.50;;;-7.62;67.17
41688;BME280;27371;42.686;23.362;2023-02-10T05:03:45;160200.16;;;-7.73;67.13
41688;BME280;27371;42.686;23.362;2023-02-10T05:06:13;160171.16;;;-7.85;67.34
41688;BME280;27371;42.686;23.362;2023-02-10T05:08:40;160161.94;;;-7.88;67.47
41688;BME280;27371;42.686;23.362;2023-02-10T05:11:08;160169.84;;;-7.85;67.70
41688;BME280;27371;42.686;23.362;2023-02-10T05:13:34;160313.66;;;-7.29;73.72
41688;BME280;27371;42.686;23.362;2023-02-10T05:15:59;160449.63;;;-6.77;74.22
41688;BME280;27371;42.686;23.362;2023-02-10T05:18:25;160406.06;;;-6.93;72.77
41688;BME280;27371;42.686;23.362;2023-02-10T05:20:50;160358.53;;;-7.12;70.67
41688;BME280;27371;42.686;23.362;2023-02-10T05:23:15;160299.16;;;-7.35;69.40
41688;BME280;27371;42.686;23.362;2023-02-10T05:25:41;160251.63;;;-7.53;68.84
41688;BME280;27371;42.686;23.362;2023-02-10T05:28:06;160223.91;;;-7.64;68.50
41688;BME280;27371;42.686;23.362;2023-02-10T05:30:32;160194.88;;;-7.75;68.61
41688;BME280;27371;42.686;23.362;2023-02-10T05:32:57;160167.16;;;-7.86;68.44
41688;BME280;27371;42.686;23.362;2023-02-10T05:35:23;160165.84;;;-7.87;68.41
41688;BME280;27371;42.686;23.362;2023-02-10T05:37:48;160183.03;;;-7.80;68.83
41688;BME280;27371;42.686;23.362;2023-02-10T05:40:14;160177.75;;;-7.82;68.88
41688;BME280;27371;42.686;23.362;2023-02-10T05:42:39;160177.75;;;-7.82;68.76
41688;BME280;27371;42.686;23.362;2023-02-10T05:45:05;160177.75;;;-7.82;69.22
41688;BME280;27371;42.686;23.362;2023-02-10T05:47:31;160189.59;;;-7.77;69.58
41688;BME280;27371;42.686;23.362;2023-02-10T05:49:56;160176.44;;;-7.82;69.16
41688;BME280;27371;42.686;23.362;2023-02-10T05:52:22;160186.97;;;-7.78;69.53
41688;BME280;27371;42.686;23.362;2023-02-10T05:54:47;160205.47;;;-7.71;69.89
41688;BME280;27371;42.686;23.362;2023-02-10T05:57:13;160239.78;;;-7.58;69.67
41688;BME280;27371;42.686;23.362;2023-02-10T05:59:38;160255.59;;;-7.52;69.59
41688;BME280;27371;42.686;23.362;2023-02-10T06:02:03;160275.41;;;-7.44;69.53
41688;BME280;27371;42.686;23.362;2023-02-10T06:04:29;160304.44;;;-7.33;69.31
41688;BME280;27371;42.686;23.362;2023-02-10T06:06:54;160329.50;;;-7.23;69.30
41688;BME280;27371;42.686;23.362;2023-02-10T06:09:20;160338.72;;;-7.20;69.03
41688;BME280;27371;42.686;23.362;2023-02-10T06:11:49;160367.78;;;-7.08;68.49
41688;BME280;27371;42.686;23.362;2023-02-10T06:14:15;160375.72;;;-7.05;67.98
41688;BME280;27371;42.686;23.362;2023-02-10T06:16:40;160361.19;;;-7.11;67.87
41688;BME280;27371;42.686;23.362;2023-02-10T06:19:06;160377.03;;;-7.05;68.09
41688;BME280;27371;42.686;23.362;2023-02-10T06:21:31;160396.84;;;-6.97;67.91
41688;BME280;27371;42.686;23.362;2023-02-10T06:23:57;160412.66;;;-6.91;67.44
41688;BME280;27371;42.686;23.362;2023-02-10T06:26:22;160417.97;;;-6.89;66.94
41688;BME280;27371;42.686;23.362;2023-02-10T06:28:48;160413.97;;;-6.90;66.71
41688;BME280;27371;42.686;23.362;2023-02-10T06:31:13;160506.41;;;-6.55;67.67
41688;BME280;27371;42.686;23.362;2023-02-10T06:33:38;160544.69;;;-6.40;66.94
41688;BME280;27371;42.686;23.362;2023-02-10T06:36:04;160568.50;;;-6.31;66.15
41688;BME280;27371;42.686;23.362;2023-02-10T06:38:34;160584.34;;;-6.24;66.13
41688;BME280;27371;42.686;23.362;2023-02-10T06:41:00;160616.03;;;-6.12;66.11
41688;BME280;27371;42.686;23.362;2023-02-10T06:43:26;160653.06;;;-5.98;65.60
41688;BME280;27371;42.686;23.362;2023-02-10T06:45:51;160666.16;;;-5.93;64.05
41688;BME280;27371;42.686;23.362;2023-02-10T06:48:17;160580.34;;;-6.26;62.34
41688;BME280;27371;42.686;23.362;2023-02-10T06:50:42;160516.94;;;-6.51;63.63
41688;BME280;27371;42.686;23.362;2023-02-10T06:53:08;160564.50;;;-6.32;65.23
41688;BME280;27371;42.686;23.362;2023-02-10T06:55:33;160622.63;;;-6.10;65.00
41688;BME280;27371;42.686;23.362;2023-02-10T06:58:01;160668.84;;;-5.92;64.18
41688;BME280;27371;42.686;23.362;2023-02-10T07:00:27;160675.44;;;-5.89;63.29
41688;BME280;27371;42.686;23.362;2023-02-10T07:02:52;160604.16;;;-6.17;61.98
41688;BME280;27371;42.686;23.362;2023-02-10T07:05:18;160560.59;;;-6.34;61.72
41688;BME280;27371;42.686;23.362;2023-02-10T07:07:44;160538.09;;;-6.42;62.34
41688;BME280;27371;42.686;23.362;2023-02-10T07:10:09;160514.31;;;-6.52;62.18
41688;BME280;27371;42.686;23.362;2023-02-10T07:12:35;160509.03;;;-6.54;62.00
41688;BME280;27371;42.686;23.362;2023-02-10T07:15:01;160499.81;;;-6.57;62.26
41688;BME280;27371;42.686;23.362;2023-02-10T07:17:26;160497.19;;;-6.58;62.08
41688;BME280;27371;42.686;23.362;2023-02-10T07:19:52;160528.84;;;-6.46;62.87
41688;BME280;27371;42.686;23.362;2023-02-10T07:22:17;160579.03;;;-6.27;63.02
41688;BME280;27371;42.686;23.362;2023-02-10T07:24:43;160592.25;;;-6.21;63.85
41688;BME280;27371;42.686;23.362;2023-02-10T07:27:08;160695.28;;;-5.82;64.58
41688;BME280;27371;42.686;23.362;2023-02-10T07:29:34;160811.56;;;-5.37;64.12
41688;BME280;27371;42.686;23.362;2023-02-10T07:32:00;160901.44;;;-5.02;64.53
41688;BME280;27371;42.686;23.362;2023-02-10T07:34:26;160976.81;;;-4.73;63.36
41688;BME280;27371;42.686;23.362;2023-02-10T07:36:52;161021.78;;;-4.55;62.72
41688;BME280;27371;42.686;23.362;2023-02-10T07:39:22;161074.72;;;-4.35;61.60
41688;BME280;27371;42.686;23.362;2023-02-10T07:41:48;161086.59;;;-4.30;60.84
41688;BME280;27371;42.686;23.362;2023-02-10T07:44:13;161109.13;;;-4.21;60.22
41688;BME280;27371;42.686;23.362;2023-02-10T07:46:39;161138.22;;;-4.10;59.76
41688;BME280;27371;42.686;23.362;2023-02-10T07:49:04;161152.78;;;-4.05;59.16
41688;BME280;27371;42.686;23.362;2023-02-10T07:51:30;161205.69;;;-3.84;58.77
41688;BME280;27371;42.686;23.362;2023-02-10T07:53:56;161246.72;;;-3.68;57.95
41688;BME280;27371;42.686;23.362;2023-02-10T07:56:21;161282.47;;;-3.54;57.43
41688;BME280;27371;42.686;23.362;2023-02-10T07:58:46;161323.50;;;-3.39;56.94
41688;BME280;27371;42.686;23.362;2023-02-10T08:01:12;161348.63;;;-3.29;56.36
41688;BME280;27371;42.686;23.362;2023-02-10T08:03:37;161339.38;;;-3.32;56.12
41688;BME280;27371;42.686;23.362;2023-02-10T08:06:04;161375.13;;;-3.19;55.95
41688;BME280;27371;42.686;23.362;2023-02-10T08:08:30;161422.81;;;-3.00;55.67
41688;BME280;27371;42.686;23.362;2023-02-10T08:10:55;161445.31;;;-2.92;55.14
41688;BME280;27371;42.686;23.362;2023-02-10T08:13:21;161449.25;;;-2.90;54.79
41688;BME280;27371;42.686;23.362;2023-02-10T08:15:47;161453.25;;;-2.88;54.76
41688;BME280;27371;42.686;23.362;2023-02-10T08:18:12;161489.00;;;-2.75;54.54
41688;BME280;27371;42.686;23.362;2023-02-10T08:20:38;161495.63;;;-2.72;53.94
41688;BME280;27371;42.686;23.362;2023-02-10T08:23:06;161552.59;;;-2.50;53.69
41688;BME280;27371;42.686;23.362;2023-02-10T08:25:31;161583.03;;;-2.38;53.23
41688;BME280;27371;42.686;23.362;2023-02-10T08:27:58;161523.47;;;-2.61;52.63
41688;BME280;27371;42.686;23.362;2023-02-10T08:30:24;161511.53;;;-2.66;53.06
41688;BME280;27371;42.686;23.362;2023-02-10T08:32:49;161494.31;;;-2.73;53.41
41688;BME280;27371;42.686;23.362;2023-02-10T08:35:15;161515.50;;;-2.64;53.62
41688;BME280;27371;42.686;23.362;2023-02-10T08:37:40;161569.78;;;-2.43;53.39
41688;BME280;27371;42.686;23.362;2023-02-10T08:40:06;161589.69;;;-2.36;52.63
41688;BME280;27371;42.686;23.362;2023-02-10T08:42:33;161610.88;;;-2.28;52.75
41688;BME280;27371;42.686;23.362;2023-02-10T08:44:59;161626.75;;;-2.21;52.23
41688;BME280;27371;42.686;23.362;2023-02-10T08:47:26;161653.28;;;-2.11;52.00
41688;BME280;27371;42.686;23.362;2023-02-10T08:49:51;161682.44;;;-2.00;51.28
41688;BME280;27371;42.686;23.362;2023-02-10T08:52:16;161579.06;;;-2.40;51.34
41688;BME280;27371;42.686;23.362;2023-02-10T08:54:42;161477.06;;;-2.79;52.25
41688;BME280;27371;42.686;23.362;2023-02-10T08:57:07;161416.19;;;-3.03;53.34
41688;BME280;27371;42.686;23.362;2023-02-10T08:59:33;161511.53;;;-2.66;53.69
41688;BME280;27371;42.686;23.362;2023-02-10T09:01:59;161621.44;;;-2.24;52.58
41688;BME280;27371;42.686;23.362;2023-02-10T09:04:24;161666.53;;;-2.06;51.86
41688;BME280;27371;42.686;23.362;2023-02-10T09:06:50;161689.06;;;-1.97;51.45
41688;BME280;27371;42.686;23.362;2023-02-10T09:09:19;161694.38;;;-1.95;51.03
41688;BME280;27371;42.686;23.362;2023-02-10T09:11:47;161708.94;;;-1.90;51.38
41688;BME280;27371;42.686;23.362;2023-02-10T09:14:13;161736.78;;;-1.79;51.10
41688;BME280;27371;42.686;23.362;2023-02-10T09:16:39;161768.56;;;-1.67;50.90
41688;BME280;27371;42.686;23.362;2023-02-10T09:19:04;161852.09;;;-1.35;51.06
41688;BME280;27371;42.686;23.362;2023-02-10T09:21:30;161890.53;;;-1.20;49.78
41688;BME280;27371;42.686;23.362;2023-02-10T09:23:55;161960.81;;;-0.93;49.52
41688;BME280;27371;42.686;23.362;2023-02-10T09:26:21;162021.81;;;-0.69;48.50
41688;BME280;27371;42.686;23.362;2023-02-10T09:28:46;162011.22;;;-0.73;48.08
41688;BME280;27371;42.686;23.362;2023-02-10T09:31:12;162044.38;;;-0.60;47.98
41688;BME280;27371;42.686;23.362;2023-02-10T09:33:39;161988.69;;;-0.82;47.87
41688;BME280;27371;42.686;23.362;2023-02-10T09:36:05;161966.13;;;-0.91;48.47
41688;BME280;27371;42.686;23.362;2023-02-10T09:38:32;161991.31;;;-0.81;49.30
41688;BME280;27371;42.686;23.362;2023-02-10T09:49:20;162163.75;;;-0.14;48.26
41688;BME280;27371;42.686;23.362;2023-02-10T09:54:19;162098.75;;;-0.39;47.35
41688;BME280;27371;42.686;23.362;2023-02-10T09:56:45;162114.66;;;-0.33;47.20
41688;BME280;27371;42.686;23.362;2023-02-10T09:59:16;162105.38;;;-0.37;46.66
41688;BME280;27371;42.686;23.362;2023-02-10T10:01:49;162078.84;;;-0.47;46.98
41688;BME280;27371;42.686;23.362;2023-02-10T10:04:18;162082.84;;;-0.46;46.77
41688;BME280;27371;42.686;23.362;2023-02-10T10:06:50;162100.06;;;-0.39;46.65
41688;BME280;27371;42.686;23.362;2023-02-10T10:09:37;162178.34;;;-0.09;46.97
41688;BME280;27371;42.686;23.362;2023-02-10T10:12:09;162248.69;;;0.18;45.64
41688;BME280;27371;42.686;23.362;2023-02-10T10:14:37;162271.25;;;0.27;44.56
41688;BME280;27371;42.686;23.362;2023-02-10T10:22:49;162183.69;;;-0.07;45.08
41688;BME280;27371;42.686;23.362;2023-02-10T10:29:31;162240.75;;;0.15;45.05
41688;BME280;27371;42.686;23.362;2023-02-10T10:31:30;162252.72;;;0.20;44.56
41688;BME280;27371;42.686;23.362;2023-02-10T10:34:18;162238.09;;;0.14;44.94
41688;BME280;27371;42.686;23.362;2023-02-10T10:36:47;162232.78;;;0.12;44.87
41688;BME280;27371;42.686;23.362;2023-02-10T10:39:14;162238.09;;;0.14;44.99
41688;BME280;27371;42.686;23.362;2023-02-10T10:41:42;162226.16;;;0.10;45.27
41688;BME280;27371;42.686;23.362;2023-02-10T10:44:12;162265.97;;;0.25;44.86
41688;BME280;27371;42.686;23.362;2023-02-10T10:49:10;162252.72;;;0.20;44.42
41688;BME280;27371;42.686;23.362;2023-02-10T10:51:36;162275.25;;;0.29;44.88
41688;BME280;27371;42.686;23.362;2023-02-10T10:54:05;162311.09;;;0.42;44.52
41688;BME280;27371;42.686;23.362;2023-02-10T10:57:04;162256.66;;;0.21;44.62
41688;BME280;27371;42.686;23.362;2023-02-10T10:59:38;162210.22;;;0.04;44.65
41688;BME280;27371;42.686;23.362;2023-02-10T11:02:16;162228.78;;;0.11;44.85
41688;BME280;27371;42.686;23.362;2023-02-10T11:04:42;162295.19;;;0.36;44.87
41688;BME280;27371;42.686;23.362;2023-02-10T11:07:12;162303.13;;;0.39;44.59
41688;BME280;27371;42.686;23.362;2023-02-10T11:09:52;162321.69;;;0.47;44.36
41688;BME280;27371;42.686;23.362;2023-02-10T11:12:28;162337.66;;;0.53;44.34
41688;BME280;27371;42.686;23.362;2023-02-10T11:14:55;162328.34;;;0.49;44.33
41688;BME280;27371;42.686;23.362;2023-02-10T11:17:36;162317.75;;;0.45;44.05
41688;BME280;27371;42.686;23.362;2023-02-10T11:20:25;162344.31;;;0.55;43.87
41688;BME280;27371;42.686;23.362;2023-02-10T11:23:01;162323.06;;;0.47;43.54
41688;BME280;27371;42.686;23.362;2023-02-10T11:27:53;162319.06;;;0.46;43.15
41688;BME280;27371;42.686;23.362;2023-02-10T11:30:28;162288.53;;;0.34;43.79
41688;BME280;27371;42.686;23.362;2023-02-10T11:32:55;162285.84;;;0.33;43.91
41688;BME280;27371;42.686;23.362;2023-02-10T11:35:21;162316.41;;;0.44;43.66
41688;BME280;27371;42.686;23.362;2023-02-10T11:38:14;162358.91;;;0.61;43.77
41688;BME280;27371;42.686;23.362;2023-02-10T11:43:16;162350.91;;;0.58;42.96
41688;BME280;27371;42.686;23.362;2023-02-10T11:45:54;162360.22;;;0.61;42.90
41688;BME280;27371;42.686;23.362;2023-02-10T11:48:22;162358.91;;;0.61;43.08
41688;BME280;27371;42.686;23.362;2023-02-10T11:51:00;162331.03;;;0.50;42.42
41688;BME280;27371;42.686;23.362;2023-02-10T11:53:28;162334.97;;;0.52;43.11
41688;BME280;27371;42.686;23.362;2023-02-10T11:56:03;162356.22;;;0.60;43.03
41688;BME280;27371;42.686;23.362;2023-02-10T12:10:04;162534.19;;;1.28;42.44
41688;BME280;27371;42.686;23.362;2023-02-10T12:18:35;162546.16;;;1.33;41.94
41688;BME280;27371;42.686;23.362;2023-02-10T12:21:19;162491.66;;;1.12;41.17
41688;BME280;27371;42.686;23.362;2023-02-10T12:29:31;162470.41;;;1.04;41.94
41688;BME280;27371;42.686;23.362;2023-02-10T12:32:17;162478.38;;;1.07;41.40
41688;BME280;27371;42.686;23.362;2023-02-10T12:35:05;162506.28;;;1.18;41.32
41688;BME280;27371;42.686;23.362;2023-02-10T12:43:31;162603.25;;;1.55;40.38
41688;BME280;27371;42.686;23.362;2023-02-10T12:46:12;162644.41;;;1.71;40.47
41688;BME280;27371;42.686;23.362;2023-02-10T12:49:10;162661.72;;;1.77;40.07
41688;BME280;27371;42.686;23.362;2023-02-10T12:54:19;162664.34;;;1.78;40.49
41688;BME280;27371;42.686;23.362;2023-02-10T12:56:49;162672.31;;;1.82;40.45
41688;BME280;27371;42.686;23.362;2023-02-10T13:01:49;162617.88;;;1.61;40.07
41688;BME280;27371;42.686;23.362;2023-02-10T13:04:28;162567.41;;;1.41;40.70
41688;BME280;27371;42.686;23.362;2023-02-10T13:06:56;162591.28;;;1.50;40.83
41688;BME280;27371;42.686;23.362;2023-02-10T13:09:42;162591.28;;;1.50;41.00
41688;BME280;27371;42.686;23.362;2023-02-10T13:12:25;162653.75;;;1.74;40.77
41688;BME280;27371;42.686;23.362;2023-02-10T13:15:02;162714.84;;;1.98;40.74
41688;BME280;27371;42.686;23.362;2023-02-10T13:17:39;162748.09;;;2.11;40.59
41688;BME280;27371;42.686;23.362;2023-02-10T13:26:42;162704.25;;;1.94;40.61
41688;BME280;27371;42.686;23.362;2023-02-10T13:32:18;162789.31;;;2.27;39.04
41688;BME280;27371;42.686;23.362;2023-02-10T13:34:50;162827.84;;;2.41;39.10
41688;BME280;27371;42.686;23.362;2023-02-10T13:40:02;162847.78;;;2.49;38.65
41688;BME280;27371;42.686;23.362;2023-02-10T13:42:45;162817.22;;;2.37;38.77
41688;BME280;27371;42.686;23.362;2023-02-10T13:47:53;162769.34;;;2.19;38.67
41688;BME280;27371;42.686;23.362;2023-02-10T13:50:57;162773.31;;;2.20;39.09
41688;BME280;27371;42.686;23.362;2023-02-10T14:03:55;162954.16;;;2.90;38.91
41688;BME280;27371;42.686;23.362;2023-02-10T14:06:35;162972.75;;;2.97;38.91
41688;BME280;27371;42.686;23.362;2023-02-10T14:09:05;163002.00;;;3.08;38.35
41688;BME280;27371;42.686;23.362;2023-02-10T14:11:40;163027.28;;;3.18;38.07
41688;BME280;27371;42.686;23.362;2023-02-10T14:16:45;163039.28;;;3.23;36.90
41688;BME280;27371;42.686;23.362;2023-02-10T14:19:38;162942.19;;;2.85;37.15
41688;BME280;27371;42.686;23.362;2023-02-10T14:22:05;162881.03;;;2.62;37.85
41688;BME280;27371;42.686;23.362;2023-02-10T14:24:35;162894.28;;;2.67;38.50
41688;BME280;27371;42.686;23.362;2023-02-10T14:27:03;162920.91;;;2.77;38.61
41688;BME280;27371;42.686;23.362;2023-02-10T14:29:32;162940.84;;;2.85;38.43
41688;BME280;27371;42.686;23.362;2023-02-10T14:32:02;162952.84;;;2.89;38.30
41688;BME280;27371;42.686;23.362;2023-02-10T14:34:30;162966.09;;;2.95;38.45
41688;BME280;27371;42.686;23.362;2023-02-10T14:37:01;162960.81;;;2.93;38.34
41688;BME280;27371;42.686;23.362;2023-02-10T14:39:29;162935.53;;;2.83;37.90
41688;BME280;27371;42.686;23.362;2023-02-10T14:41:58;162900.94;;;2.70;37.73